TLS weather

Toulouse-Blagnac Airport
Toulouse/Blagnac, Midi-Pyrénées, France

Public forecast

Using degrees Celsius for public forecast. Weather courtesy of forecast.io.

Current aviation weather report (METAR) for Toulouse-Blagnac Airport

Retrieved 2019/10/15 09:30 UTC (23 minutes ago):

LFBO 150930Z AUTO 27017KT 9999 FEW028 BKN058 BKN082 15/09 Q1017 TEMPO 4000 SHRA FEW015 BKN035TCU

Aviation forecast (TAF) for Toulouse-Blagnac Airport

Retrieved 2019/10/15 06:21 UTC (4 hours ago):

TAF LFBO 150500Z 1506/1612 28012KT 9999 BKN030 TEMPO 1506/1508 RA BKN012 BKN020 PROB40 TEMPO 1509/1512 29020KT 4000 SHRA FEW015 BKN035TCU BECMG 1517/1519 CAVOK BECMG 1519/1521 VRB03KT BECMG 1610/1612 15008KT